Time;durP1;ratioP1;P1;durP2;ratioP2;P2;SDS_P1;SDS_P2;PMS_P1;PMS_P2;Temp;Humidity;BMP_temperature;BMP_pressure;BME280_temperature;BME280_humidity;BME280_pressure;Samples;Min_cycle;Max_cycle;Signal;HPM_P1;HPM_P2
2021/11/12 00:02:21;;;;;;;90.28;46.38;;;;;;;;;;5121955;28;20058;-65
2021/11/12 00:13:06;;;;;;;83.13;45.13;;;;;;;;;;5112485;28;20341;-65
2021/11/12 00:15:41;;;;;;;94.32;48.35;;;;;;;;;;5119704;28;20035;-65
2021/11/12 00:18:07;;;;;;;78.28;46.30;;;;;;;;;;5119462;28;20090;-65
2021/11/12 00:20:33;;;;;;;79.95;43.33;;;;;;;;;;5118655;28;20054;-65
2021/11/12 00:22:59;;;;;;;83.30;45.42;;;;;;;;;;5118431;28;20111;-65
2021/11/12 00:25:26;;;;;;;82.60;44.47;;;;;;;;;;5111343;28;20035;-65
2021/11/12 00:27:52;;;;;;;86.03;45.80;;;;;;;;;;5122738;28;20058;-65
2021/11/12 00:30:45;;;;;;;86.10;45.53;;;;;;;;;;5114241;28;20066;-65
2021/11/12 00:36:04;;;;;;;76.35;43.38;;;;;;;;;;5119914;28;20056;-65
2021/11/12 00:38:38;;;;;;;74.75;44.00;;;;;;;;;;5111455;28;20040;-65
2021/11/12 00:43:55;;;;;;;81.55;45.40;;;;;;;;;;5116891;28;20058;-65
2021/11/12 00:46:38;;;;;;;82.47;44.75;;;;;;;;;;5122017;28;20134;-65
2021/11/12 00:49:09;;;;;;;85.47;46.15;;;;;;;;;;5122452;28;20051;-65
2021/11/12 00:51:57;;;;;;;74.88;46.10;;;;;;;;;;5125300;28;20043;-65
2021/11/12 00:54:23;;;;;;;76.57;44.95;;;;;;;;;;5125364;28;20043;-65
2021/11/12 00:56:51;;;;;;;84.90;46.45;;;;;;;;;;5124718;28;20047;-65
2021/11/12 00:59:18;;;;;;;80.85;45.13;;;;;;;;;;5125287;28;20118;-65
2021/11/12 01:01:45;;;;;;;76.97;45.42;;;;;;;;;;5117922;28;20032;-65
2021/11/12 01:04:14;;;;;;;77.38;46.17;;;;;;;;;;5124559;28;20050;-65
2021/11/12 01:06:40;;;;;;;78.65;46.67;;;;;;;;;;5125128;28;20062;-65
2021/11/12 01:09:08;;;;;;;79.95;44.28;;;;;;;;;;5124908;28;20047;-65
2021/11/12 01:11:35;;;;;;;83.50;48.22;;;;;;;;;;5124711;28;20047;-65
2021/11/12 01:14:03;;;;;;;87.07;46.72;;;;;;;;;;5105690;28;20043;-65
2021/11/12 01:16:30;;;;;;;80.95;46.33;;;;;;;;;;5097000;28;20048;-65
2021/11/12 01:18:56;;;;;;;88.03;48.47;;;;;;;;;;5124918;28;20067;-65
2021/11/12 01:21:24;;;;;;;79.85;45.13;;;;;;;;;;5106217;28;20047;-65
2021/11/12 01:23:51;;;;;;;81.82;44.45;;;;;;;;;;5125233;28;20059;-65
2021/11/12 01:26:18;;;;;;;83.75;47.30;;;;;;;;;;5124254;28;20099;-65
2021/11/12 01:28:44;;;;;;;87.03;47.45;;;;;;;;;;5117815;28;20047;-65
2021/11/12 01:31:11;;;;;;;73.55;42.65;;;;;;;;;;5122582;28;20035;-65
2021/11/12 01:33:38;;;;;;;77.97;46.20;;;;;;;;;;5124841;28;20043;-65
2021/11/12 01:36:49;;;;;;;88.30;50.53;;;;;;;;;;5124558;28;20550;-65
2021/11/12 01:38:51;;;;;;;84.47;44.72;;;;;;;;;;5106771;28;20047;-65
2021/11/12 01:41:18;;;;;;;79.55;46.95;;;;;;;;;;5124232;28;20097;-65
2021/11/12 01:43:48;;;;;;;88.70;47.90;;;;;;;;;;5117799;28;20055;-65
2021/11/12 01:57:22;;;;;;;76.93;45.92;;;;;;;;;;5125201;28;20039;-65
2021/11/12 01:59:15;;;;;;;79.90;46.95;;;;;;;;;;5099670;28;20048;-65
2021/11/12 02:01:47;;;;;;;91.93;48.50;;;;;;;;;;5121563;28;20047;-65
2021/11/12 02:04:15;;;;;;;75.10;45.25;;;;;;;;;;5128524;28;20051;-65
2021/11/12 02:06:42;;;;;;;78.93;45.58;;;;;;;;;;5127726;28;20044;-65
2021/11/12 02:09:19;;;;;;;75.53;44.60;;;;;;;;;;5128990;28;20105;-65
2021/11/12 02:11:46;;;;;;;85.05;44.92;;;;;;;;;;5127966;28;20107;-65
2021/11/12 02:14:14;;;;;;;77.75;43.40;;;;;;;;;;5128466;28;20044;-65
2021/11/12 02:16:46;;;;;;;76.05;43.70;;;;;;;;;;5126277;28;20081;-65
2021/11/12 02:19:13;;;;;;;73.22;42.42;;;;;;;;;;5106902;28;20073;-65
2021/11/12 02:21:50;;;;;;;77.18;40.75;;;;;;;;;;5109776;28;20054;-65
2021/11/12 02:24:17;;;;;;;70.30;40.97;;;;;;;;;;5125188;28;20109;-65
2021/11/12 02:26:47;;;;;;;66.28;41.80;;;;;;;;;;5114412;28;20044;-65
2021/11/12 02:29:16;;;;;;;68.45;42.45;;;;;;;;;;5104947;28;20039;-64
2021/11/12 02:31:42;;;;;;;72.38;40.83;;;;;;;;;;5128351;28;20039;-65
2021/11/12 02:34:10;;;;;;;71.55;43.65;;;;;;;;;;5099426;28;20317;-65
2021/11/12 02:36:36;;;;;;;74.13;42.00;;;;;;;;;;5114045;28;20047;-65
2021/11/12 02:39:04;;;;;;;68.57;39.42;;;;;;;;;;5126179;28;20127;-65
2021/11/12 02:41:30;;;;;;;71.68;40.30;;;;;;;;;;5127788;28;20040;-65
2021/11/12 02:43:56;;;;;;;71.05;42.40;;;;;;;;;;5127885;28;20511;-64
2021/11/12 02:46:25;;;;;;;65.85;40.67;;;;;;;;;;5105679;28;20265;-65
2021/11/12 02:48:52;;;;;;;65.97;40.10;;;;;;;;;;5104138;28;20103;-64
2021/11/12 02:51:25;;;;;;;66.25;38.70;;;;;;;;;;5107145;28;20127;-65
2021/11/12 02:53:51;;;;;;;66.28;41.95;;;;;;;;;;5126066;28;20052;-64
2021/11/12 02:56:29;;;;;;;70.10;41.33;;;;;;;;;;5127604;28;20075;-65
2021/11/12 02:59:02;;;;;;;69.93;40.00;;;;;;;;;;5108684;28;20051;-64
2021/11/12 03:01:29;;;;;;;66.28;39.95;;;;;;;;;;5100014;28;20495;-64
2021/11/12 03:03:55;;;;;;;59.35;37.15;;;;;;;;;;5127176;28;20043;-65
2021/11/12 03:06:23;;;;;;;67.55;42.88;;;;;;;;;;5127279;28;20058;-65
2021/11/12 03:08:49;;;;;;;;;;;;;;;;;;5107131;28;20580;-65
2021/11/12 03:11:16;;;;;;;63.97;40.00;;;;;;;;;;5108780;28;20121;-65
2021/11/12 03:13:44;;;;;;;66.40;39.22;;;;;;;;;;5127083;28;20040;-64
2021/11/12 03:16:11;;;;;;;63.53;40.33;;;;;;;;;;5127076;28;20047;-64
2021/11/12 03:18:37;;;;;;;64.30;40.15;;;;;;;;;;5125486;28;20507;-64
2021/11/12 03:21:04;;;;;;;65.57;38.92;;;;;;;;;;5125219;28;20400;-65
2021/11/12 03:23:36;;;;;;;65.05;38.60;;;;;;;;;;5108679;28;20499;-65
2021/11/12 03:28:49;;;;;;;68.32;39.15;;;;;;;;;;5103984;28;20130;-65
2021/11/12 03:46:58;;;;;;;67.15;37.95;;;;;;;;;;5121996;28;20547;-65
2021/11/12 03:56:48;;;;;;;59.45;37.63;;;;;;;;;;5107507;28;20054;-65
2021/11/12 04:02:10;;;;;;;59.42;35.90;;;;;;;;;;5122540;28;20054;-66
2021/11/12 04:39:47;;;;;;;50.65;32.88;;;;;;;;;;5116108;28;20113;-64
2021/11/12 05:12:17;;;;;;;55.00;32.13;;;;;;;;;;5124381;28;20047;-65
2021/11/12 05:44:43;;;;;;;56.38;33.92;;;;;;;;;;5123940;28;20643;-65
2021/11/12 05:50:11;;;;;;;58.85;35.97;;;;;;;;;;5124254;28;20055;-65
2021/11/12 05:55:23;;;;;;;64.47;35.60;;;;;;;;;;5102046;28;20086;-65
2021/11/12 05:57:49;;;;;;;61.47;36.22;;;;;;;;;;5124414;28;20051;-65
2021/11/12 06:00:17;;;;;;;56.47;34.97;;;;;;;;;;5124437;28;20048;-65
2021/11/12 06:02:43;;;;;;;58.30;36.55;;;;;;;;;;5113045;28;20043;-65
2021/11/12 06:05:10;;;;;;;66.55;35.90;;;;;;;;;;5111318;28;20048;-65
2021/11/12 06:07:36;;;;;;;61.28;36.95;;;;;;;;;;5121089;28;20063;-65
2021/11/12 06:10:03;;;;;;;62.92;36.55;;;;;;;;;;5123341;28;20036;-65
2021/11/12 06:12:29;;;;;;;58.40;34.15;;;;;;;;;;5117444;28;20040;-66
2021/11/12 06:14:55;;;;;;;60.53;34.53;;;;;;;;;;5116021;28;20040;-66
2021/11/12 06:17:21;;;;;;;60.97;36.55;;;;;;;;;;5114929;28;20100;-66
2021/11/12 06:19:48;;;;;;;61.00;35.20;;;;;;;;;;5116968;28;20043;-66
2021/11/12 06:22:14;;;;;;;59.53;34.55;;;;;;;;;;5078971;28;20039;-65
2021/11/12 06:24:40;;;;;;;54.30;35.22;;;;;;;;;;5105412;28;20310;-65
2021/11/12 06:27:07;;;;;;;61.50;36.10;;;;;;;;;;5113830;28;20044;-66
2021/11/12 06:29:34;;;;;;;58.80;36.10;;;;;;;;;;5121901;28;20040;-66
2021/11/12 06:32:00;;;;;;;59.70;35.10;;;;;;;;;;5093654;28;20044;-66
2021/11/12 06:34:26;;;;;;;60.95;37.67;;;;;;;;;;5106433;28;20052;-66
2021/11/12 06:36:52;;;;;;;66.85;37.58;;;;;;;;;;5090285;28;20130;-65
2021/11/12 06:39:19;;;;;;;59.05;36.92;;;;;;;;;;5109826;28;20499;-65
2021/11/12 06:49:34;;;;;;;60.53;38.53;;;;;;;;;;5120577;28;20054;-65
2021/11/12 06:52:00;;;;;;;62.80;38.25;;;;;;;;;;5122437;28;20043;-65
2021/11/12 06:54:28;;;;;;;61.28;36.45;;;;;;;;;;5117670;28;20047;-65
2021/11/12 06:56:54;;;;;;;64.10;39.22;;;;;;;;;;5127248;28;20078;-65
2021/11/12 06:59:20;;;;;;;59.55;36.83;;;;;;;;;;5108858;28;20302;-65
2021/11/12 07:01:47;;;;;;;64.10;38.40;;;;;;;;;;5126974;28;20150;-65
2021/11/12 07:04:14;;;;;;;64.00;36.38;;;;;;;;;;5127034;28;20040;-65
2021/11/12 07:06:40;;;;;;;67.13;39.08;;;;;;;;;;5126939;28;20099;-65
2021/11/12 07:09:07;;;;;;;65.35;36.90;;;;;;;;;;5127239;28;20076;-65
2021/11/12 07:11:34;;;;;;;58.95;37.95;;;;;;;;;;5108654;28;20054;-65
2021/11/12 07:14:01;;;;;;;79.28;41.70;;;;;;;;;;5127100;28;20127;-64
2021/11/12 07:16:27;;;;;;;63.42;37.00;;;;;;;;;;5108453;28;20075;-64
2021/11/12 07:18:56;;;;;;;61.35;37.72;;;;;;;;;;5127327;28;20039;-64
2021/11/12 07:21:23;;;;;;;67.57;39.35;;;;;;;;;;5126827;28;20039;-65
2021/11/12 07:23:50;;;;;;;62.25;38.55;;;;;;;;;;5126605;28;20097;-65
2021/11/12 07:26:16;;;;;;;64.63;39.65;;;;;;;;;;5123281;28;20610;-65
2021/11/12 07:28:44;;;;;;;63.10;36.95;;;;;;;;;;5097398;28;20122;-65
2021/11/12 07:31:10;;;;;;;65.65;38.65;;;;;;;;;;5126370;28;20507;-64
2021/11/12 07:33:38;;;;;;;65.85;38.10;;;;;;;;;;5119722;28;20122;-64
2021/11/12 07:49:04;;;;;;;67.60;35.00;;;;;;;;;;5107903;28;19959;-64
2021/11/12 07:51:30;;;;;;;61.85;36.88;;;;;;;;;;5108339;28;20044;-64
2021/11/12 07:53:57;;;;;;;55.60;34.47;;;;;;;;;;5119055;28;20611;-65
2021/11/12 07:56:24;;;;;;;55.97;33.70;;;;;;;;;;5118546;28;20051;-65
2021/11/12 07:58:51;;;;;;;53.67;33.55;;;;;;;;;;5125360;28;20035;-65
2021/11/12 08:01:17;;;;;;;54.50;31.42;;;;;;;;;;5119807;28;20103;-65
2021/11/12 08:03:45;;;;;;;45.72;28.88;;;;;;;;;;5119752;28;20101;-71
2021/11/12 08:06:15;;;;;;;51.67;31.52;;;;;;;;;;5107173;28;20066;-70
2021/11/12 08:08:46;;;;;;;50.58;30.80;;;;;;;;;;5120326;28;20181;-71
2021/11/12 08:21:52;;;;;;;50.78;28.42;;;;;;;;;;5113922;28;20075;-70
2021/11/12 08:24:29;;;;;;;44.50;24.90;;;;;;;;;;5093317;28;20143;-70
2021/11/12 08:29:38;;;;;;;46.47;26.15;;;;;;;;;;5113342;28;20052;-70
2021/11/12 08:34:47;;;;;;;40.63;24.55;;;;;;;;;;5125465;28;20043;-70
2021/11/12 08:37:31;;;;;;;37.40;22.98;;;;;;;;;;5120306;28;20070;-70
2021/11/12 08:40:14;;;;;;;38.30;24.75;;;;;;;;;;5094535;28;20044;-70
2021/11/12 08:42:51;;;;;;;41.38;21.80;;;;;;;;;;5092441;28;20048;-70
2021/11/12 08:45:28;;;;;;;39.92;22.80;;;;;;;;;;5105259;28;20055;-70
2021/11/12 08:47:59;;;;;;;32.30;22.13;;;;;;;;;;5125785;28;20444;-70
2021/11/12 08:50:25;;;;;;;34.85;21.67;;;;;;;;;;5119141;28;20040;-70
2021/11/12 08:52:54;;;;;;;30.92;20.33;;;;;;;;;;5103236;28;20112;-70
2021/11/12 08:55:26;;;;;;;36.40;19.98;;;;;;;;;;5094552;28;20046;-70
2021/11/12 08:57:52;;;;;;;33.97;18.38;;;;;;;;;;5088147;28;20036;-69
2021/11/12 09:00:18;;;;;;;29.15;20.02;;;;;;;;;;5100543;28;20040;-70
2021/11/12 09:02:45;;;;;;;29.50;19.73;;;;;;;;;;5114682;28;20501;-70
2021/11/12 09:05:11;;;;;;;56.60;19.85;;;;;;;;;;5100144;28;20558;-69
2021/11/12 09:07:38;;;;;;;27.80;18.25;;;;;;;;;;5102022;28;20071;-70
2021/11/12 09:10:05;;;;;;;32.33;20.70;;;;;;;;;;5113366;28;20040;-71
2021/11/12 09:12:31;;;;;;;37.03;20.38;;;;;;;;;;5107917;28;20044;-68
2021/11/12 09:14:59;;;;;;;28.70;18.02;;;;;;;;;;5117625;28;20066;-70
2021/11/12 09:17:31;;;;;;;29.85;17.77;;;;;;;;;;5104795;28;20039;-73
2021/11/12 09:20:01;;;;;;;26.15;17.88;;;;;;;;;;5109730;28;20048;-66
2021/11/12 09:22:31;;;;;;;28.35;15.85;;;;;;;;;;5091326;28;20047;-64
2021/11/12 09:24:57;;;;;;;27.25;16.73;;;;;;;;;;5109404;28;20039;-65
2021/11/12 09:27:23;;;;;;;30.92;18.70;;;;;;;;;;5096583;28;20107;-63
2021/11/12 09:29:50;;;;;;;31.58;17.58;;;;;;;;;;5115436;28;20095;-62
2021/11/12 09:32:16;;;;;;;31.20;18.45;;;;;;;;;;5112756;28;20047;-62
2021/11/12 09:34:43;;;;;;;28.92;17.50;;;;;;;;;;5117912;28;20156;-62
2021/11/12 09:37:10;;;;;;;25.77;18.00;;;;;;;;;;5108300;28;20518;-62
2021/11/12 09:39:37;;;;;;;29.23;17.83;;;;;;;;;;5109925;28;20114;-61
2021/11/12 09:42:05;;;;;;;24.52;16.75;;;;;;;;;;5087451;28;20048;-61
2021/11/12 09:44:31;;;;;;;30.17;17.58;;;;;;;;;;5090711;28;20048;-63
2021/11/12 09:46:58;;;;;;;29.98;18.20;;;;;;;;;;5117488;28;20048;-62
2021/11/12 09:49:24;;;;;;;25.92;17.17;;;;;;;;;;5095485;28;20052;-62
2021/11/12 09:51:50;;;;;;;29.77;16.67;;;;;;;;;;5111714;28;20032;-62
2021/11/12 09:54:16;;;;;;;27.25;16.40;;;;;;;;;;5119063;28;20348;-62
2021/11/12 09:56:42;;;;;;;25.90;16.02;;;;;;;;;;5121072;28;20050;-62
2021/11/12 09:59:08;;;;;;;27.15;16.52;;;;;;;;;;5087134;28;20123;-62
2021/11/12 10:01:39;;;;;;;28.52;15.93;;;;;;;;;;5107868;28;20067;-63
2021/11/12 10:04:08;;;;;;;24.30;16.10;;;;;;;;;;5116536;28;20052;-63
2021/11/12 10:06:35;;;;;;;24.50;15.75;;;;;;;;;;5114250;28;20087;-62
2021/11/12 10:09:02;;;;;;;23.08;15.63;;;;;;;;;;5119012;28;20042;-63
2021/11/12 10:11:32;;;;;;;22.73;15.60;;;;;;;;;;5118370;28;20122;-62
2021/11/12 10:14:04;;;;;;;25.30;16.17;;;;;;;;;;5110735;28;20068;-62
2021/11/12 10:16:37;;;;;;;32.10;15.20;;;;;;;;;;5117291;28;20050;-65
2021/11/12 10:19:20;;;;;;;25.02;14.90;;;;;;;;;;5085854;28;20036;-64
2021/11/12 10:21:51;;;;;;;25.17;15.10;;;;;;;;;;5118961;28;20051;-67
2021/11/12 10:24:19;;;;;;;24.35;15.23;;;;;;;;;;5102966;28;20131;-66
2021/11/12 10:26:48;;;;;;;23.20;14.98;;;;;;;;;;5097641;28;20035;-66
2021/11/12 10:29:15;;;;;;;24.10;15.52;;;;;;;;;;5092992;28;20043;-66
2021/11/12 10:31:49;;;;;;;22.38;13.88;;;;;;;;;;5096026;28;20051;-64
2021/11/12 10:34:17;;;;;;;25.40;15.25;;;;;;;;;;5112540;28;20032;-67
2021/11/12 10:36:48;;;;;;;22.33;15.73;;;;;;;;;;5112165;28;20039;-64
2021/11/12 10:39:14;;;;;;;25.92;14.73;;;;;;;;;;5112279;28;20044;-62
2021/11/12 10:41:40;;;;;;;24.98;15.07;;;;;;;;;;5119456;28;20461;-61
2021/11/12 10:44:13;;;;;;;27.40;16.08;;;;;;;;;;5094193;28;20039;-60
2021/11/12 10:46:40;;;;;;;23.20;14.52;;;;;;;;;;5096135;28;20138;-65
2021/11/12 10:49:23;;;;;;;25.13;15.77;;;;;;;;;;5118377;28;20059;-64
2021/11/12 10:51:53;;;;;;;24.10;13.95;;;;;;;;;;5098242;28;20047;-63
2021/11/12 10:54:34;;;;;;;22.30;14.82;;;;;;;;;;5112074;28;20067;-61
2021/11/12 10:57:00;;;;;;;28.33;14.98;;;;;;;;;;5101800;28;20078;-61
2021/11/12 10:59:27;;;;;;;27.20;14.52;;;;;;;;;;5120227;28;20040;-66
2021/11/12 11:01:53;;;;;;;23.77;15.27;;;;;;;;;;5095444;28;20040;-64
2021/11/12 11:04:20;;;;;;;23.35;14.55;;;;;;;;;;5098093;28;20523;-65
2021/11/12 11:06:48;;;;;;;26.52;16.15;;;;;;;;;;5120365;28;20043;-65
2021/11/12 11:09:14;;;;;;;24.67;14.77;;;;;;;;;;5103745;28;20050;-63
2021/11/12 11:11:45;;;;;;;25.55;15.77;;;;;;;;;;5123126;28;20099;-63
2021/11/12 11:14:30;;;;;;;24.23;15.70;;;;;;;;;;5100837;28;20069;-63
2021/11/12 11:16:57;;;;;;;26.15;16.23;;;;;;;;;;5087462;28;20063;-65
2021/11/12 11:19:34;;;;;;;21.05;14.85;;;;;;;;;;5115365;28;20046;-62
2021/11/12 11:22:03;;;;;;;24.50;15.07;;;;;;;;;;5119062;28;20075;-66
2021/11/12 11:24:33;;;;;;;22.48;14.55;;;;;;;;;;5118322;28;20106;-61
2021/11/12 11:26:59;;;;;;;22.95;13.52;;;;;;;;;;5100349;28;20048;-65
2021/11/12 11:29:26;;;;;;;20.38;14.40;;;;;;;;;;5118719;28;20082;-62
2021/11/12 11:31:54;;;;;;;22.73;13.55;;;;;;;;;;5103540;28;20074;-65
2021/11/12 11:34:21;;;;;;;20.13;14.15;;;;;;;;;;5118997;28;20516;-61
2021/11/12 11:36:48;;;;;;;20.07;13.57;;;;;;;;;;5120073;28;20059;-61
2021/11/12 11:39:17;;;;;;;18.60;13.07;;;;;;;;;;5093868;28;20036;-62
2021/11/12 11:41:44;;;;;;;20.48;13.05;;;;;;;;;;5120335;28;20044;-67
2021/11/12 11:44:19;;;;;;;20.05;12.77;;;;;;;;;;5104455;28;20054;-74
2021/11/12 11:46:48;;;;;;;18.52;11.40;;;;;;;;;;5093849;28;20123;-68
2021/11/12 11:49:22;;;;;;;16.75;10.32;;;;;;;;;;5100190;28;20439;-67
2021/11/12 11:51:51;;;;;;;20.20;12.70;;;;;;;;;;5091762;28;20046;-67
2021/11/12 11:54:18;;;;;;;18.38;11.93;;;;;;;;;;5098619;28;20105;-68
2021/11/12 11:56:49;;;;;;;17.75;10.90;;;;;;;;;;5088216;28;20068;-68
2021/11/12 11:59:21;;;;;;;17.05;12.65;;;;;;;;;;5093304;28;20057;-68
2021/11/12 12:01:57;;;;;;;18.27;12.57;;;;;;;;;;5101926;28;20101;-68
2021/11/12 12:04:24;;;;;;;19.33;12.55;;;;;;;;;;5098221;28;20079;-68
2021/11/12 12:07:03;;;;;;;18.25;12.95;;;;;;;;;;5114826;28;20279;-68
2021/11/12 12:09:46;;;;;;;16.80;11.20;;;;;;;;;;5097663;28;20071;-68
2021/11/12 12:12:13;;;;;;;19.25;13.02;;;;;;;;;;5102319;28;20081;-66
2021/11/12 12:14:39;;;;;;;16.50;11.90;;;;;;;;;;5091832;28;20046;-65
2021/11/12 12:17:06;;;;;;;20.00;13.50;;;;;;;;;;5086016;28;20502;-64
2021/11/12 12:19:45;;;;;;;19.52;12.73;;;;;;;;;;5092469;28;20566;-64
2021/11/12 12:30:51;;;;;;;21.65;14.18;;;;;;;;;;5092285;28;20040;-64
2021/11/12 13:25:23;;;;;;;33.55;21.92;;;;;;;;;;5107234;28;20055;-72
2021/11/12 13:27:49;;;;;;;38.35;23.17;;;;;;;;;;5117567;28;20051;-69
2021/11/12 13:30:26;;;;;;;33.35;20.65;;;;;;;;;;5116864;28;20044;-66
2021/11/12 13:32:52;;;;;;;34.63;20.83;;;;;;;;;;5099945;28;20048;-68
2021/11/12 13:35:30;;;;;;;40.80;23.13;;;;;;;;;;5104297;28;20047;-67
2021/11/12 13:37:56;;;;;;;35.75;23.13;;;;;;;;;;5122590;28;20095;-67
2021/11/12 13:40:22;;;;;;;39.63;23.10;;;;;;;;;;5108194;28;20040;-68
2021/11/12 13:42:49;;;;;;;41.95;24.00;;;;;;;;;;5091023;28;20115;-70
2021/11/12 13:45:22;;;;;;;36.67;23.13;;;;;;;;;;5098842;28;20115;-78
2021/11/12 13:48:18;;;;;;;40.85;23.80;;;;;;;;;;5119646;28;20039;-72
2021/11/12 13:51:00;;;;;;;43.30;24.75;;;;;;;;;;5080427;28;20048;-70
2021/11/12 13:53:33;;;;;;;36.95;23.50;;;;;;;;;;5123697;28;20336;-68
2021/11/12 13:56:01;;;;;;;40.97;22.88;;;;;;;;;;5124128;28;20129;-65
2021/11/12 13:58:27;;;;;;;40.00;23.55;;;;;;;;;;5094463;28;20071;-62
2021/11/12 14:00:54;;;;;;;43.42;25.63;;;;;;;;;;5116297;28;20066;-61
2021/11/12 14:03:32;;;;;;;42.58;25.58;;;;;;;;;;5122616;28;20073;-65
2021/11/12 14:06:00;;;;;;;44.67;26.52;;;;;;;;;;5123158;28;20388;-64
2021/11/12 14:08:33;;;;;;;41.22;26.77;;;;;;;;;;5111086;28;20128;-65
2021/11/12 14:11:01;;;;;;;39.25;25.48;;;;;;;;;;5101328;28;20072;-64
2021/11/12 14:13:34;;;;;;;41.92;27.95;;;;;;;;;;5098035;28;20052;-64
2021/11/12 14:19:03;;;;;;;42.00;27.03;;;;;;;;;;5100973;28;20426;-64
2021/11/12 14:27:25;;;;;;;46.42;29.63;;;;;;;;;;5102529;28;20052;-66
2021/11/12 14:30:25;;;;;;;47.47;28.15;;;;;;;;;;5125975;28;20059;-67
2021/11/12 14:45:58;;;;;;;64.05;35.25;;;;;;;;;;5119619;28;20063;-68
2021/11/12 14:48:28;;;;;;;58.40;33.53;;;;;;;;;;5106706;28;20132;-69
2021/11/12 14:54:12;;;;;;;61.50;32.92;;;;;;;;;;5096602;28;20082;-65
2021/11/12 14:56:24;;;;;;;63.42;33.90;;;;;;;;;;5111498;28;20043;-64
2021/11/12 14:58:58;;;;;;;53.50;31.30;;;;;;;;;;5108650;28;20051;-64
2021/11/12 15:01:25;;;;;;;57.85;32.00;;;;;;;;;;5111207;28;20054;-64
2021/11/12 15:03:52;;;;;;;59.42;36.15;;;;;;;;;;5110958;28;20141;-63
2021/11/12 15:06:20;;;;;;;57.55;32.35;;;;;;;;;;5095500;28;20044;-66
2021/11/12 15:08:52;;;;;;;67.75;37.53;;;;;;;;;;5102579;28;20328;-61
2021/11/12 15:11:21;;;;;;;63.10;35.75;;;;;;;;;;5119109;28;20083;-64
2021/11/12 15:13:49;;;;;;;66.57;39.08;;;;;;;;;;5104411;28;20562;-64
2021/11/12 15:16:23;;;;;;;60.58;34.65;;;;;;;;;;5114453;28;20044;-66
2021/11/12 15:18:52;;;;;;;60.03;35.10;;;;;;;;;;5117337;28;20070;-65
2021/11/12 15:21:24;;;;;;;60.03;35.97;;;;;;;;;;5115838;28;20035;-65
2021/11/12 15:34:13;;;;;;;64.82;38.35;;;;;;;;;;5088046;28;20056;-65
2021/11/12 15:36:55;;;;;;;69.82;37.55;;;;;;;;;;5116412;28;20043;-65
2021/11/12 15:39:31;;;;;;;68.32;38.50;;;;;;;;;;5112988;28;20044;-68
2021/11/12 15:44:43;;;;;;;72.68;40.97;;;;;;;;;;5094163;28;20492;-68
2021/11/12 15:47:22;;;;;;;74.70;40.33;;;;;;;;;;5117379;28;20067;-65
2021/11/12 15:49:50;;;;;;;77.82;42.28;;;;;;;;;;5092707;28;20111;-68
2021/11/12 15:55:27;;;;;;;72.13;39.78;;;;;;;;;;5043864;28;20079;-66
2021/11/12 16:20:39;;;;;;;66.90;38.50;;;;;;;;;;4999454;28;20140;-65
2021/11/12 16:25:17;;;;;;;76.80;40.13;;;;;;;;;;4986134;28;20057;-70
2021/11/12 16:27:49;;;;;;;68.88;37.63;;;;;;;;;;4986150;28;20042;-67
2021/11/12 16:30:18;;;;;;;76.32;40.78;;;;;;;;;;4984297;28;20073;-67
2021/11/12 16:35:13;;;;;;;69.32;37.35;;;;;;;;;;5034370;28;20054;-66
2021/11/12 16:37:40;;;;;;;72.63;40.00;;;;;;;;;;5033822;28;20096;-65
2021/11/12 16:42:48;;;;;;;73.45;39.13;;;;;;;;;;5031957;28;20050;-69
2021/11/12 16:45:44;;;;;;;67.60;38.40;;;;;;;;;;5063540;28;20120;-69
2021/11/12 16:48:20;;;;;;;75.60;40.67;;;;;;;;;;5116566;28;20514;-70
2021/11/12 16:51:12;;;;;;;69.78;39.47;;;;;;;;;;5117200;28;20103;-69
2021/11/12 16:53:57;;;;;;;69.57;39.05;;;;;;;;;;5097353;28;20082;-70
2021/11/12 16:59:18;;;;;;;78.68;41.25;;;;;;;;;;5090308;28;20048;-70
2021/11/12 17:02:14;;;;;;;68.53;38.70;;;;;;;;;;5113719;28;20040;-70
2021/11/12 17:04:38;;;;;;;71.15;40.30;;;;;;;;;;5111590;28;20055;-70
2021/11/12 17:07:14;;;;;;;75.80;42.63;;;;;;;;;;5112034;28;20039;-63
2021/11/12 17:17:57;;;;;;;77.60;43.80;;;;;;;;;;5102895;28;20051;-68
2021/11/12 17:47:18;;;;;;;65.32;37.60;;;;;;;;;;5066154;28;20155;-64
2021/11/12 17:50:36;;;;;;;61.08;33.50;;;;;;;;;;5097211;28;20140;-63
2021/11/12 18:03:31;;;;;;;53.65;30.80;;;;;;;;;;5030476;28;20538;-64
2021/11/12 18:06:03;;;;;;;56.63;33.08;;;;;;;;;;5024524;28;20055;-63
2021/11/12 21:46:15;;;;;;;45.47;24.85;;;;;;;;;;5098322;28;20094;-63
2021/11/12 21:48:16;;;;;;;47.53;28.75;;;;;;;;;;5110450;28;20043;-63
2021/11/12 21:50:43;;;;;;;50.95;29.60;;;;;;;;;;5099203;28;20044;-63
2021/11/12 21:53:09;;;;;;;49.92;27.77;;;;;;;;;;5101242;28;20136;-62
2021/11/12 21:55:35;;;;;;;42.85;26.65;;;;;;;;;;5114941;28;20039;-62
2021/11/12 21:58:01;;;;;;;41.33;26.27;;;;;;;;;;5119009;28;20035;-63
2021/11/12 22:00:28;;;;;;;40.08;25.67;;;;;;;;;;5117429;28;20546;-63
2021/11/12 22:02:55;;;;;;;42.55;26.23;;;;;;;;;;5120279;28;20126;-62
2021/11/12 22:05:22;;;;;;;42.20;25.90;;;;;;;;;;5117711;28;20102;-62
2021/11/12 22:07:48;;;;;;;41.40;26.60;;;;;;;;;;5115559;28;20686;-63
2021/11/12 22:10:15;;;;;;;45.90;25.90;;;;;;;;;;5094748;28;20043;-62
2021/11/12 22:12:41;;;;;;;39.20;26.83;;;;;;;;;;5104972;28;20118;-62
2021/11/12 22:15:07;;;;;;;43.53;26.42;;;;;;;;;;5122464;28;20407;-61
2021/11/12 22:17:34;;;;;;;45.97;26.75;;;;;;;;;;5103299;28;20078;-61
2021/11/12 22:20:01;;;;;;;40.97;24.23;;;;;;;;;;5101676;28;20126;-62
2021/11/12 22:22:27;;;;;;;40.42;24.90;;;;;;;;;;5103415;28;20063;-65
2021/11/12 22:24:53;;;;;;;38.30;24.38;;;;;;;;;;5119592;28;20091;-64
2021/11/12 22:27:19;;;;;;;42.75;25.05;;;;;;;;;;5101238;28;20426;-65
2021/11/12 22:29:46;;;;;;;48.08;28.23;;;;;;;;;;5115872;28;20051;-66
2021/11/12 22:32:13;;;;;;;44.45;26.08;;;;;;;;;;5117733;28;20554;-66
2021/11/12 22:34:39;;;;;;;51.83;28.30;;;;;;;;;;5115676;28;20059;-66
2021/11/12 22:37:05;;;;;;;47.25;27.08;;;;;;;;;;5120782;28;20040;-67
2021/11/12 22:39:31;;;;;;;52.88;29.70;;;;;;;;;;5115739;28;20043;-68
2021/11/12 22:41:57;;;;;;;57.38;30.40;;;;;;;;;;5122877;28;20039;-68
2021/11/12 22:44:23;;;;;;;55.95;30.85;;;;;;;;;;5094961;28;20099;-68
2021/11/12 22:46:50;;;;;;;57.28;32.25;;;;;;;;;;5117717;28;20098;-67
2021/11/12 22:49:16;;;;;;;48.55;25.92;;;;;;;;;;5113134;28;20044;-66
2021/11/12 22:51:42;;;;;;;58.60;32.03;;;;;;;;;;5120796;28;20074;-67
2021/11/12 22:54:08;;;;;;;58.15;32.25;;;;;;;;;;5119547;28;20101;-68
2021/11/12 22:56:35;;;;;;;57.00;31.42;;;;;;;;;;5115628;28;20504;-68
2021/11/12 22:59:01;;;;;;;59.95;32.55;;;;;;;;;;5113634;28;20051;-66
2021/11/12 23:01:29;;;;;;;61.20;33.70;;;;;;;;;;5117268;28;20067;-67
2021/11/12 23:03:55;;;;;;;55.00;30.08;;;;;;;;;;5117567;28;20035;-67
2021/11/12 23:06:21;;;;;;;48.42;29.10;;;;;;;;;;5119402;28;20127;-67
2021/11/12 23:08:48;;;;;;;53.97;30.17;;;;;;;;;;5100153;28;20576;-67
2021/11/12 23:11:15;;;;;;;55.40;31.23;;;;;;;;;;5106847;28;20044;-67
2021/11/12 23:13:42;;;;;;;51.90;30.17;;;;;;;;;;5121843;28;20126;-67
2021/11/12 23:16:08;;;;;;;54.60;30.40;;;;;;;;;;5118837;28;20401;-67
2021/11/12 23:18:35;;;;;;;48.78;30.58;;;;;;;;;;5125310;28;20114;-67
2021/11/12 23:21:01;;;;;;;52.50;29.48;;;;;;;;;;5126239;28;20086;-67
2021/11/12 23:23:27;;;;;;;56.13;31.35;;;;;;;;;;5122536;28;20083;-67
2021/11/12 23:25:54;;;;;;;56.92;31.52;;;;;;;;;;5106214;28;20048;-66
2021/11/12 23:28:21;;;;;;;57.65;30.48;;;;;;;;;;5107902;28;20130;-67
2021/11/12 23:30:47;;;;;;;48.42;28.40;;;;;;;;;;5126855;28;20077;-67
2021/11/12 23:33:13;;;;;;;53.40;29.08;;;;;;;;;;5126369;28;20446;-67
2021/11/12 23:35:40;;;;;;;52.97;27.27;;;;;;;;;;5126579;28;20099;-66
2021/11/12 23:38:06;;;;;;;52.30;28.88;;;;;;;;;;5105486;28;20047;-67
2021/11/12 23:40:32;;;;;;;54.00;30.65;;;;;;;;;;5105700;28;20055;-66
2021/11/12 23:42:59;;;;;;;47.45;28.02;;;;;;;;;;5106439;28;20051;-66
2021/11/12 23:45:25;;;;;;;55.90;29.95;;;;;;;;;;5116367;28;20533;-66
2021/11/12 23:47:51;;;;;;;57.38;29.35;;;;;;;;;;5096193;28;20056;-66
2021/11/12 23:50:18;;;;;;;62.00;31.90;;;;;;;;;;5124788;28;20043;-67
2021/11/12 23:52:45;;;;;;;62.23;31.37;;;;;;;;;;5126351;28;20107;-66
2021/11/12 23:55:13;;;;;;;58.78;31.70;;;;;;;;;;5106960;28;20075;-66
2021/11/12 23:57:40;;;;;;;61.22;32.00;;;;;;;;;;5104351;28;20052;-66
